Bradford, Indiana
Current Conditions -  °F | °C
As of 12:56 AM on Monday 24 Nov 2014 (Local Time) from KSDF Reporting Station
Overcast Overcast  
Wind Chill: 61°   Ceiling: 1900
Heat Index: 61°   Visibility: 10mi
Dew Point: 56°   Wind: 20mph
Humidity: 83%   Direction: 220°SW
Pressure: 29.36"   Gusts: 33mph
Location:  38.37°N, 86.06°W
Report Text: KSDF 240556Z 22017G29KT 10SM BKN019 BKN026 OVC032 16/13 A2936 RMK AO2 PK WND 21029/0554 SLP940 60013 T01610133 10161 20133 53021 $
Loading
Personal Weather Stations






























Interactive Weather Map New forecast layout! Learn more

10-Day Weather Forecast

Advertisements
Track Severe Weather on mobile